sensor_id;sensor_type;location;lat;lon;timestamp;temperature;humidity
23499;DHT22;11926;48.120;11.562;2023-06-22T00:00:08;22.40;80.50
23499;DHT22;11926;48.120;11.562;2023-06-22T00:02:58;22.40;80.50
23499;DHT22;11926;48.120;11.562;2023-06-22T00:05:45;22.40;80.60
23499;DHT22;11926;48.120;11.562;2023-06-22T00:08:32;22.30;80.60
23499;DHT22;11926;48.120;11.562;2023-06-22T00:11:18;22.30;80.60
23499;DHT22;11926;48.120;11.562;2023-06-22T00:14:07;22.30;80.80
23499;DHT22;11926;48.120;11.562;2023-06-22T00:16:54;22.30;80.70
23499;DHT22;11926;48.120;11.562;2023-06-22T00:19:43;22.30;80.80
23499;DHT22;11926;48.120;11.562;2023-06-22T00:22:30;22.20;80.60
23499;DHT22;11926;48.120;11.562;2023-06-22T00:25:17;22.20;80.90
23499;DHT22;11926;48.120;11.562;2023-06-22T00:28:04;22.20;81.00
23499;DHT22;11926;48.120;11.562;2023-06-22T00:30:54;22.20;81.10
23499;DHT22;11926;48.120;11.562;2023-06-22T00:33:43;22.10;81.10
23499;DHT22;11926;48.120;11.562;2023-06-22T00:36:30;22.10;81.20
23499;DHT22;11926;48.120;11.562;2023-06-22T00:39:17;22.10;81.30
23499;DHT22;11926;48.120;11.562;2023-06-22T00:42:05;22.00;81.40
23499;DHT22;11926;48.120;11.562;2023-06-22T00:44:52;22.00;81.50
23499;DHT22;11926;48.120;11.562;2023-06-22T00:47:40;22.00;81.60
23499;DHT22;11926;48.120;11.562;2023-06-22T00:50:31;21.90;81.80
23499;DHT22;11926;48.120;11.562;2023-06-22T00:53:21;21.90;82.10
23499;DHT22;11926;48.120;11.562;2023-06-22T00:56:08;21.80;82.90
23499;DHT22;11926;48.120;11.562;2023-06-22T00:58:58;21.70;82.30
23499;DHT22;11926;48.120;11.562;2023-06-22T01:01:46;21.70;82.40
23499;DHT22;11926;48.120;11.562;2023-06-22T01:04:37;21.80;82.60
23499;DHT22;11926;48.120;11.562;2023-06-22T01:07:30;21.70;82.50
23499;DHT22;11926;48.120;11.562;2023-06-22T01:10:21;21.70;82.50
23499;DHT22;11926;48.120;11.562;2023-06-22T01:13:18;21.60;82.30
23499;DHT22;11926;48.120;11.562;2023-06-22T01:16:07;21.60;82.90
23499;DHT22;11926;48.120;11.562;2023-06-22T01:19:00;21.50;82.90
23499;DHT22;11926;48.120;11.562;2023-06-22T01:21:50;21.60;83.10
23499;DHT22;11926;48.120;11.562;2023-06-22T01:24:47;21.50;83.20
23499;DHT22;11926;48.120;11.562;2023-06-22T01:27:46;21.50;83.20
23499;DHT22;11926;48.120;11.562;2023-06-22T01:30:35;21.50;83.40
23499;DHT22;11926;48.120;11.562;2023-06-22T01:33:25;21.50;83.40
23499;DHT22;11926;48.120;11.562;2023-06-22T01:36:12;21.40;83.40
23499;DHT22;11926;48.120;11.562;2023-06-22T01:39:00;21.40;83.60
23499;DHT22;11926;48.120;11.562;2023-06-22T01:41:49;21.40;83.80
23499;DHT22;11926;48.120;11.562;2023-06-22T01:44:37;21.40;84.00
23499;DHT22;11926;48.120;11.562;2023-06-22T01:47:29;21.30;83.80
23499;DHT22;11926;48.120;11.562;2023-06-22T01:50:17;21.40;84.10
23499;DHT22;11926;48.120;11.562;2023-06-22T01:53:04;21.30;84.30
23499;DHT22;11926;48.120;11.562;2023-06-22T01:55:52;21.30;84.50
23499;DHT22;11926;48.120;11.562;2023-06-22T01:58:45;21.30;84.50
23499;DHT22;11926;48.120;11.562;2023-06-22T02:01:41;21.30;84.60
23499;DHT22;11926;48.120;11.562;2023-06-22T02:04:36;21.20;84.70
23499;DHT22;11926;48.120;11.562;2023-06-22T02:07:28;21.20;84.90
23499;DHT22;11926;48.120;11.562;2023-06-22T02:10:22;21.20;85.20
23499;DHT22;11926;48.120;11.562;2023-06-22T02:13:10;21.20;85.10
23499;DHT22;11926;48.120;11.562;2023-06-22T02:15:57;21.20;85.50
23499;DHT22;11926;48.120;11.562;2023-06-22T02:18:46;21.10;85.30
23499;DHT22;11926;48.120;11.562;2023-06-22T02:21:38;21.10;85.50
23499;DHT22;11926;48.120;11.562;2023-06-22T02:24:25;21.10;85.70
23499;DHT22;11926;48.120;11.562;2023-06-22T02:27:12;21.10;85.90
23499;DHT22;11926;48.120;11.562;2023-06-22T02:29:59;21.00;86.20
23499;DHT22;11926;48.120;11.562;2023-06-22T02:32:46;21.00;86.60
23499;DHT22;11926;48.120;11.562;2023-06-22T02:35:34;21.00;86.80
23499;DHT22;11926;48.120;11.562;2023-06-22T02:38:23;20.90;86.80
23499;DHT22;11926;48.120;11.562;2023-06-22T02:41:10;20.90;87.00
23499;DHT22;11926;48.120;11.562;2023-06-22T02:43:58;20.90;87.00
23499;DHT22;11926;48.120;11.562;2023-06-22T02:46:46;20.90;87.10
23499;DHT22;11926;48.120;11.562;2023-06-22T02:49:34;20.90;87.40
23499;DHT22;11926;48.120;11.562;2023-06-22T02:52:22;20.80;87.40
23499;DHT22;11926;48.120;11.562;2023-06-22T02:55:10;20.80;87.60
23499;DHT22;11926;48.120;11.562;2023-06-22T02:57:57;20.80;87.60
23499;DHT22;11926;48.120;11.562;2023-06-22T03:00:48;20.70;87.50
23499;DHT22;11926;48.120;11.562;2023-06-22T03:03:39;20.70;87.70
23499;DHT22;11926;48.120;11.562;2023-06-22T03:06:27;20.60;87.80
23499;DHT22;11926;48.120;11.562;2023-06-22T03:09:15;20.60;87.90
23499;DHT22;11926;48.120;11.562;2023-06-22T03:12:04;20.60;88.00
23499;DHT22;11926;48.120;11.562;2023-06-22T03:15:01;20.60;88.10
23499;DHT22;11926;48.120;11.562;2023-06-22T03:17:47;20.50;88.20
23499;DHT22;11926;48.120;11.562;2023-06-22T03:20:34;20.50;88.40
23499;DHT22;11926;48.120;11.562;2023-06-22T03:23:22;20.50;88.60
23499;DHT22;11926;48.120;11.562;2023-06-22T03:26:09;20.50;88.70
23499;DHT22;11926;48.120;11.562;2023-06-22T03:28:58;20.40;88.80
23499;DHT22;11926;48.120;11.562;2023-06-22T03:31:47;20.40;88.20
23499;DHT22;11926;48.120;11.562;2023-06-22T03:34:35;20.40;89.00
23499;DHT22;11926;48.120;11.562;2023-06-22T03:37:22;20.40;89.10
23499;DHT22;11926;48.120;11.562;2023-06-22T03:40:10;20.40;89.20
23499;DHT22;11926;48.120;11.562;2023-06-22T03:42:58;20.40;89.40
23499;DHT22;11926;48.120;11.562;2023-06-22T03:45:49;20.40;89.60
23499;DHT22;11926;48.120;11.562;2023-06-22T03:48:37;20.40;89.40
23499;DHT22;11926;48.120;11.562;2023-06-22T03:51:25;20.40;89.60
23499;DHT22;11926;48.120;11.562;2023-06-22T03:54:12;20.40;89.60
23499;DHT22;11926;48.120;11.562;2023-06-22T03:56:59;20.40;89.70
23499;DHT22;11926;48.120;11.562;2023-06-22T03:59:46;20.40;89.70
23499;DHT22;11926;48.120;11.562;2023-06-22T04:02:34;20.50;90.30
23499;DHT22;11926;48.120;11.562;2023-06-22T04:05:21;20.50;89.80
23499;DHT22;11926;48.120;11.562;2023-06-22T04:08:10;20.60;89.70
23499;DHT22;11926;48.120;11.562;2023-06-22T04:10:57;20.60;89.60
23499;DHT22;11926;48.120;11.562;2023-06-22T04:13:44;20.70;89.60
23499;DHT22;11926;48.120;11.562;2023-06-22T04:16:31;20.70;89.50
23499;DHT22;11926;48.120;11.562;2023-06-22T04:19:20;20.80;89.50
23499;DHT22;11926;48.120;11.562;2023-06-22T04:22:08;20.80;89.30
23499;DHT22;11926;48.120;11.562;2023-06-22T04:24:55;20.90;89.30
23499;DHT22;11926;48.120;11.562;2023-06-22T04:27:42;20.90;89.10
23499;DHT22;11926;48.120;11.562;2023-06-22T04:30:32;21.00;89.10
23499;DHT22;11926;48.120;11.562;2023-06-22T04:33:19;21.00;89.10
23499;DHT22;11926;48.120;11.562;2023-06-22T04:36:08;21.10;88.90
23499;DHT22;11926;48.120;11.562;2023-06-22T04:38:58;21.20;88.80
23499;DHT22;11926;48.120;11.562;2023-06-22T04:41:45;21.20;88.70
23499;DHT22;11926;48.120;11.562;2023-06-22T04:44:33;21.30;88.50
23499;DHT22;11926;48.120;11.562;2023-06-22T04:47:20;21.30;88.40
23499;DHT22;11926;48.120;11.562;2023-06-22T04:50:07;21.30;88.40
23499;DHT22;11926;48.120;11.562;2023-06-22T04:52:56;21.40;88.40
23499;DHT22;11926;48.120;11.562;2023-06-22T04:55:43;21.40;88.30
23499;DHT22;11926;48.120;11.562;2023-06-22T04:58:32;21.50;87.80
23499;DHT22;11926;48.120;11.562;2023-06-22T05:01:19;21.60;87.70
23499;DHT22;11926;48.120;11.562;2023-06-22T05:04:07;21.70;87.50
23499;DHT22;11926;48.120;11.562;2023-06-22T05:06:55;21.80;87.30
23499;DHT22;11926;48.120;11.562;2023-06-22T05:09:43;21.90;86.90
23499;DHT22;11926;48.120;11.562;2023-06-22T05:12:30;22.00;86.50
23499;DHT22;11926;48.120;11.562;2023-06-22T05:15:17;22.10;86.10
23499;DHT22;11926;48.120;11.562;2023-06-22T05:18:06;22.20;86.00
23499;DHT22;11926;48.120;11.562;2023-06-22T05:20:53;22.30;85.70
23499;DHT22;11926;48.120;11.562;2023-06-22T05:23:40;22.40;85.20
23499;DHT22;11926;48.120;11.562;2023-06-22T05:26:29;22.50;85.20
23499;DHT22;11926;48.120;11.562;2023-06-22T05:29:16;22.60;85.00
23499;DHT22;11926;48.120;11.562;2023-06-22T05:32:03;22.70;84.50
23499;DHT22;11926;48.120;11.562;2023-06-22T05:34:50;22.80;84.30
23499;DHT22;11926;48.120;11.562;2023-06-22T05:37:37;23.00;83.80
23499;DHT22;11926;48.120;11.562;2023-06-22T05:40:24;23.10;83.80
23499;DHT22;11926;48.120;11.562;2023-06-22T05:43:15;23.30;82.90
23499;DHT22;11926;48.120;11.562;2023-06-22T05:46:03;23.40;82.50
23499;DHT22;11926;48.120;11.562;2023-06-22T05:48:50;23.40;82.50
23499;DHT22;11926;48.120;11.562;2023-06-22T05:51:38;23.50;82.00
23499;DHT22;11926;48.120;11.562;2023-06-22T05:54:25;23.60;81.40
23499;DHT22;11926;48.120;11.562;2023-06-22T05:57:12;23.70;82.10
23499;DHT22;11926;48.120;11.562;2023-06-22T06:00:01;23.80;80.90
23499;DHT22;11926;48.120;11.562;2023-06-22T06:02:51;24.00;80.60
23499;DHT22;11926;48.120;11.562;2023-06-22T06:05:38;24.10;80.20
23499;DHT22;11926;48.120;11.562;2023-06-22T06:08:25;24.30;79.30
23499;DHT22;11926;48.120;11.562;2023-06-22T06:11:13;24.40;79.10
23499;DHT22;11926;48.120;11.562;2023-06-22T06:14:00;24.60;78.50
23499;DHT22;11926;48.120;11.562;2023-06-22T06:16:48;24.80;77.70
23499;DHT22;11926;48.120;11.562;2023-06-22T06:19:35;25.00;76.80
23499;DHT22;11926;48.120;11.562;2023-06-22T06:22:23;25.20;76.10
23499;DHT22;11926;48.120;11.562;2023-06-22T06:25:10;25.30;75.90
23499;DHT22;11926;48.120;11.562;2023-06-22T06:28:01;25.50;75.30
23499;DHT22;11926;48.120;11.562;2023-06-22T06:30:48;25.70;74.40
23499;DHT22;11926;48.120;11.562;2023-06-22T06:33:39;25.80;74.10
23499;DHT22;11926;48.120;11.562;2023-06-22T06:36:26;25.90;73.00
23499;DHT22;11926;48.120;11.562;2023-06-22T06:39:13;26.00;72.60
23499;DHT22;11926;48.120;11.562;2023-06-22T06:42:01;26.00;72.50
23499;DHT22;11926;48.120;11.562;2023-06-22T06:44:48;26.30;73.10
23499;DHT22;11926;48.120;11.562;2023-06-22T06:47:35;26.50;71.60
23499;DHT22;11926;48.120;11.562;2023-06-22T06:50:24;26.70;70.60
23499;DHT22;11926;48.120;11.562;2023-06-22T06:53:11;26.90;69.70
23499;DHT22;11926;48.120;11.562;2023-06-22T06:55:58;27.10;69.20
23499;DHT22;11926;48.120;11.562;2023-06-22T06:58:45;27.30;68.40
23499;DHT22;11926;48.120;11.562;2023-06-22T07:01:32;27.40;67.70
23499;DHT22;11926;48.120;11.562;2023-06-22T07:04:21;27.60;67.20
23499;DHT22;11926;48.120;11.562;2023-06-22T07:07:09;27.90;66.30
23499;DHT22;11926;48.120;11.562;2023-06-22T07:09:57;28.40;66.00
23499;DHT22;11926;48.120;11.562;2023-06-22T07:12:44;28.80;64.00
23499;DHT22;11926;48.120;11.562;2023-06-22T07:15:31;30.10;60.10
23499;DHT22;11926;48.120;11.562;2023-06-22T07:18:18;30.10;59.90
23499;DHT22;11926;48.120;11.562;2023-06-22T07:21:05;31.10;57.80
23499;DHT22;11926;48.120;11.562;2023-06-22T07:23:54;31.90;55.90
23499;DHT22;11926;48.120;11.562;2023-06-22T07:26:42;32.60;54.10
23499;DHT22;11926;48.120;11.562;2023-06-22T07:29:31;33.40;52.40
23499;DHT22;11926;48.120;11.562;2023-06-22T07:32:18;34.20;50.70
23499;DHT22;11926;48.120;11.562;2023-06-22T07:35:06;34.70;49.60
23499;DHT22;11926;48.120;11.562;2023-06-22T07:37:53;35.10;48.30
23499;DHT22;11926;48.120;11.562;2023-06-22T07:40:42;35.40;47.50
23499;DHT22;11926;48.120;11.562;2023-06-22T07:43:30;35.90;46.30
23499;DHT22;11926;48.120;11.562;2023-06-22T07:46:18;35.90;45.60
23499;DHT22;11926;48.120;11.562;2023-06-22T07:49:05;35.70;45.50
23499;DHT22;11926;48.120;11.562;2023-06-22T07:51:53;35.80;45.60
23499;DHT22;11926;48.120;11.562;2023-06-22T07:54:40;35.90;45.20
23499;DHT22;11926;48.120;11.562;2023-06-22T07:57:29;36.10;45.00
23499;DHT22;11926;48.120;11.562;2023-06-22T08:00:20;36.50;44.40
23499;DHT22;11926;48.120;11.562;2023-06-22T08:03:07;37.20;45.00
23499;DHT22;11926;48.120;11.562;2023-06-22T08:05:54;38.00;41.90
23499;DHT22;11926;48.120;11.562;2023-06-22T08:08:42;37.90;41.30
23499;DHT22;11926;48.120;11.562;2023-06-22T08:11:29;37.10;41.70
23499;DHT22;11926;48.120;11.562;2023-06-22T08:14:17;36.60;42.90
23499;DHT22;11926;48.120;11.562;2023-06-22T08:17:04;36.20;43.70
23499;DHT22;11926;48.120;11.562;2023-06-22T08:19:51;36.80;43.80
23499;DHT22;11926;48.120;11.562;2023-06-22T08:22:39;38.10;41.90
23499;DHT22;11926;48.120;11.562;2023-06-22T08:25:26;39.20;39.60
23499;DHT22;11926;48.120;11.562;2023-06-22T08:28:13;39.80;39.20
23499;DHT22;11926;48.120;11.562;2023-06-22T08:31:02;40.60;37.60
23499;DHT22;11926;48.120;11.562;2023-06-22T08:33:49;41.00;36.40
23499;DHT22;11926;48.120;11.562;2023-06-22T08:36:36;40.60;35.80
23499;DHT22;11926;48.120;11.562;2023-06-22T08:39:27;39.50;37.00
23499;DHT22;11926;48.120;11.562;2023-06-22T08:42:14;38.10;38.80
23499;DHT22;11926;48.120;11.562;2023-06-22T08:45:01;36.90;41.30
23499;DHT22;11926;48.120;11.562;2023-06-22T08:47:50;36.40;42.30
23499;DHT22;11926;48.120;11.562;2023-06-22T08:50:37;36.30;42.80
23499;DHT22;11926;48.120;11.562;2023-06-22T08:53:26;36.10;42.80
23499;DHT22;11926;48.120;11.562;2023-06-22T08:56:13;35.80;43.40
23499;DHT22;11926;48.120;11.562;2023-06-22T08:59:00;36.00;43.00
23499;DHT22;11926;48.120;11.562;2023-06-22T09:01:47;36.30;42.90
23499;DHT22;11926;48.120;11.562;2023-06-22T09:04:35;37.00;42.00
23499;DHT22;11926;48.120;11.562;2023-06-22T09:07:23;38.30;40.50
23499;DHT22;11926;48.120;11.562;2023-06-22T09:10:11;39.20;38.20
23499;DHT22;11926;48.120;11.562;2023-06-22T09:12:58;39.90;37.40
23499;DHT22;11926;48.120;11.562;2023-06-22T09:15:46;40.50;36.40
23499;DHT22;11926;48.120;11.562;2023-06-22T09:18:34;40.70;35.50
23499;DHT22;11926;48.120;11.562;2023-06-22T09:21:23;40.90;35.40
23499;DHT22;11926;48.120;11.562;2023-06-22T09:24:10;40.80;34.90
23499;DHT22;11926;48.120;11.562;2023-06-22T09:26:57;40.60;35.50
23499;DHT22;11926;48.120;11.562;2023-06-22T09:29:44;40.80;35.70
23499;DHT22;11926;48.120;11.562;2023-06-22T09:32:32;41.10;34.90
23499;DHT22;11926;48.120;11.562;2023-06-22T09:35:18;41.10;34.20
23499;DHT22;11926;48.120;11.562;2023-06-22T09:38:07;41.10;34.70
23499;DHT22;11926;48.120;11.562;2023-06-22T09:40:54;40.40;34.70
23499;DHT22;11926;48.120;11.562;2023-06-22T09:43:41;39.70;35.70
23499;DHT22;11926;48.120;11.562;2023-06-22T09:46:28;39.10;36.70
23499;DHT22;11926;48.120;11.562;2023-06-22T09:49:16;38.60;38.20
23499;DHT22;11926;48.120;11.562;2023-06-22T09:52:06;38.40;38.50
23499;DHT22;11926;48.120;11.562;2023-06-22T09:54:55;38.20;39.00
23499;DHT22;11926;48.120;11.562;2023-06-22T09:57:42;38.00;38.90
23499;DHT22;11926;48.120;11.562;2023-06-22T10:00:29;37.60;39.80
23499;DHT22;11926;48.120;11.562;2023-06-22T10:03:17;37.30;40.80
23499;DHT22;11926;48.120;11.562;2023-06-22T10:06:04;37.10;40.70
23499;DHT22;11926;48.120;11.562;2023-06-22T10:08:51;36.80;41.20
23499;DHT22;11926;48.120;11.562;2023-06-22T10:11:40;36.60;41.50
23499;DHT22;11926;48.120;11.562;2023-06-22T10:14:27;36.30;42.00
23499;DHT22;11926;48.120;11.562;2023-06-22T10:17:15;36.00;42.70
23499;DHT22;11926;48.120;11.562;2023-06-22T10:20:03;35.80;43.30
23499;DHT22;11926;48.120;11.562;2023-06-22T10:22:57;35.60;43.60
23499;DHT22;11926;48.120;11.562;2023-06-22T10:25:44;35.50;44.50
23499;DHT22;11926;48.120;11.562;2023-06-22T10:28:33;35.40;45.40
23499;DHT22;11926;48.120;11.562;2023-06-22T10:31:20;35.40;44.70
23499;DHT22;11926;48.120;11.562;2023-06-22T10:34:07;35.40;45.20
23499;DHT22;11926;48.120;11.562;2023-06-22T10:36:54;35.30;44.90
23499;DHT22;11926;48.120;11.562;2023-06-22T10:39:41;35.30;44.70
23499;DHT22;11926;48.120;11.562;2023-06-22T10:42:28;35.20;45.30
23499;DHT22;11926;48.120;11.562;2023-06-22T10:45:17;35.20;45.20
23499;DHT22;11926;48.120;11.562;2023-06-22T10:48:04;35.30;45.00
23499;DHT22;11926;48.120;11.562;2023-06-22T10:50:51;35.30;45.60
23499;DHT22;11926;48.120;11.562;2023-06-22T10:53:38;35.40;45.20
23499;DHT22;11926;48.120;11.562;2023-06-22T10:56:25;35.40;45.40
23499;DHT22;11926;48.120;11.562;2023-06-22T10:59:13;35.50;45.50
23499;DHT22;11926;48.120;11.562;2023-06-22T11:02:01;35.60;44.50
23499;DHT22;11926;48.120;11.562;2023-06-22T11:04:48;35.60;44.30
23499;DHT22;11926;48.120;11.562;2023-06-22T11:07:37;35.60;44.60
23499;DHT22;11926;48.120;11.562;2023-06-22T11:10:24;35.50;45.30
23499;DHT22;11926;48.120;11.562;2023-06-22T11:13:11;35.50;46.30
23499;DHT22;11926;48.120;11.562;2023-06-22T11:15:58;35.50;45.50
23499;DHT22;11926;48.120;11.562;2023-06-22T11:18:47;35.60;44.80
23499;DHT22;11926;48.120;11.562;2023-06-22T11:21:33;35.60;44.20
23499;DHT22;11926;48.120;11.562;2023-06-22T11:24:20;35.60;44.20
23499;DHT22;11926;48.120;11.562;2023-06-22T11:27:07;35.60;45.10
23499;DHT22;11926;48.120;11.562;2023-06-22T11:29:54;35.70;45.10
23499;DHT22;11926;48.120;11.562;2023-06-22T11:32:41;35.80;46.40
23499;DHT22;11926;48.120;11.562;2023-06-22T11:35:30;35.90;45.40
23499;DHT22;11926;48.120;11.562;2023-06-22T11:38:17;36.10;45.70
23499;DHT22;11926;48.120;11.562;2023-06-22T11:41:04;36.20;45.40
23499;DHT22;11926;48.120;11.562;2023-06-22T11:43:51;36.40;45.70
23499;DHT22;11926;48.120;11.562;2023-06-22T11:46:38;36.50;45.70
23499;DHT22;11926;48.120;11.562;2023-06-22T11:49:25;36.60;45.00
23499;DHT22;11926;48.120;11.562;2023-06-22T11:52:13;36.70;44.60
23499;DHT22;11926;48.120;11.562;2023-06-22T11:55:00;36.70;44.50
23499;DHT22;11926;48.120;11.562;2023-06-22T11:57:55;36.60;44.30
23499;DHT22;11926;48.120;11.562;2023-06-22T12:00:44;36.50;44.80
23499;DHT22;11926;48.120;11.562;2023-06-22T12:03:36;36.50;46.20
23499;DHT22;11926;48.120;11.562;2023-06-22T12:06:23;36.60;44.90
23499;DHT22;11926;48.120;11.562;2023-06-22T12:09:12;36.60;44.70
23499;DHT22;11926;48.120;11.562;2023-06-22T12:11:59;36.50;44.60
23499;DHT22;11926;48.120;11.562;2023-06-22T12:14:46;36.40;44.70
23499;DHT22;11926;48.120;11.562;2023-06-22T12:17:34;36.40;45.50
23499;DHT22;11926;48.120;11.562;2023-06-22T12:20:21;36.50;44.70
23499;DHT22;11926;48.120;11.562;2023-06-22T12:23:10;36.60;45.50
23499;DHT22;11926;48.120;11.562;2023-06-22T12:25:58;36.70;44.70
23499;DHT22;11926;48.120;11.562;2023-06-22T12:28:45;36.90;43.80
23499;DHT22;11926;48.120;11.562;2023-06-22T12:31:32;37.00;44.30
23499;DHT22;11926;48.120;11.562;2023-06-22T12:34:19;37.00;44.10
23499;DHT22;11926;48.120;11.562;2023-06-22T12:37:06;37.20;44.50
23499;DHT22;11926;48.120;11.562;2023-06-22T12:39:54;37.10;44.10
23499;DHT22;11926;48.120;11.562;2023-06-22T12:42:42;37.00;43.60
23499;DHT22;11926;48.120;11.562;2023-06-22T12:45:29;36.90;44.60
23499;DHT22;11926;48.120;11.562;2023-06-22T12:48:19;36.90;44.70
23499;DHT22;11926;48.120;11.562;2023-06-22T12:51:06;36.90;44.30
23499;DHT22;11926;48.120;11.562;2023-06-22T12:53:53;37.00;44.40
23499;DHT22;11926;48.120;11.562;2023-06-22T12:56:40;37.20;44.70
23499;DHT22;11926;48.120;11.562;2023-06-22T12:59:30;37.20;43.80
23499;DHT22;11926;48.120;11.562;2023-06-22T13:02:17;37.30;44.30
23499;DHT22;11926;48.120;11.562;2023-06-22T13:05:05;37.20;43.50
23499;DHT22;11926;48.120;11.562;2023-06-22T13:07:52;37.10;44.50
23499;DHT22;11926;48.120;11.562;2023-06-22T13:10:40;37.00;44.30
23499;DHT22;11926;48.120;11.562;2023-06-22T13:13:27;37.00;44.50
23499;DHT22;11926;48.120;11.562;2023-06-22T13:16:16;37.00;45.00
23499;DHT22;11926;48.120;11.562;2023-06-22T13:19:03;37.10;46.40
23499;DHT22;11926;48.120;11.562;2023-06-22T13:21:51;37.30;45.10
23499;DHT22;11926;48.120;11.562;2023-06-22T13:24:38;37.40;44.40
23499;DHT22;11926;48.120;11.562;2023-06-22T13:27:26;37.60;44.00
23499;DHT22;11926;48.120;11.562;2023-06-22T13:30:13;37.60;42.80
23499;DHT22;11926;48.120;11.562;2023-06-22T13:33:01;37.60;44.70
23499;DHT22;11926;48.120;11.562;2023-06-22T13:35:48;37.50;43.90
23499;DHT22;11926;48.120;11.562;2023-06-22T13:38:36;37.60;43.70
23499;DHT22;11926;48.120;11.562;2023-06-22T13:41:24;37.80;44.20
23499;DHT22;11926;48.120;11.562;2023-06-22T13:44:12;37.90;43.10
23499;DHT22;11926;48.120;11.562;2023-06-22T13:47:00;37.90;42.80
23499;DHT22;11926;48.120;11.562;2023-06-22T13:49:48;38.00;43.10
23499;DHT22;11926;48.120;11.562;2023-06-22T13:52:35;38.10;43.60
23499;DHT22;11926;48.120;11.562;2023-06-22T13:55:23;38.10;43.00
23499;DHT22;11926;48.120;11.562;2023-06-22T13:58:10;38.00;43.50
23499;DHT22;11926;48.120;11.562;2023-06-22T14:00:57;37.90;44.30
23499;DHT22;11926;48.120;11.562;2023-06-22T14:03:44;38.10;43.90
23499;DHT22;11926;48.120;11.562;2023-06-22T14:06:34;38.30;44.30
23499;DHT22;11926;48.120;11.562;2023-06-22T14:09:21;38.40;42.20
23499;DHT22;11926;48.120;11.562;2023-06-22T14:12:09;38.30;42.90
23499;DHT22;11926;48.120;11.562;2023-06-22T14:14:56;38.30;42.90
23499;DHT22;11926;48.120;11.562;2023-06-22T14:17:44;38.10;42.90
23499;DHT22;11926;48.120;11.562;2023-06-22T14:20:31;38.10;42.90
23499;DHT22;11926;48.120;11.562;2023-06-22T14:23:20;38.10;43.20
23499;DHT22;11926;48.120;11.562;2023-06-22T14:26:07;38.10;41.80
23499;DHT22;11926;48.120;11.562;2023-06-22T14:28:54;38.00;41.40
23499;DHT22;11926;48.120;11.562;2023-06-22T14:31:45;37.80;41.90
23499;DHT22;11926;48.120;11.562;2023-06-22T14:34:32;37.70;42.80
23499;DHT22;11926;48.120;11.562;2023-06-22T14:37:21;37.70;41.80
23499;DHT22;11926;48.120;11.562;2023-06-22T14:40:10;37.70;43.00
23499;DHT22;11926;48.120;11.562;2023-06-22T14:42:58;37.80;42.10
23499;DHT22;11926;48.120;11.562;2023-06-22T14:45:46;37.70;41.70
23499;DHT22;11926;48.120;11.562;2023-06-22T14:48:33;37.60;41.80
23499;DHT22;11926;48.120;11.562;2023-06-22T14:51:20;37.40;42.20
23499;DHT22;11926;48.120;11.562;2023-06-22T14:54:07;37.30;42.00
23499;DHT22;11926;48.120;11.562;2023-06-22T14:56:56;37.20;42.00
23499;DHT22;11926;48.120;11.562;2023-06-22T14:59:43;37.10;42.30
23499;DHT22;11926;48.120;11.562;2023-06-22T15:02:30;37.00;43.30
23499;DHT22;11926;48.120;11.562;2023-06-22T15:05:17;37.00;43.30
23499;DHT22;11926;48.120;11.562;2023-06-22T15:08:05;36.80;42.90
23499;DHT22;11926;48.120;11.562;2023-06-22T15:10:58;36.70;43.10
23499;DHT22;11926;48.120;11.562;2023-06-22T15:13:48;36.60;43.60
23499;DHT22;11926;48.120;11.562;2023-06-22T15:16:35;36.60;43.70
23499;DHT22;11926;48.120;11.562;2023-06-22T15:19:23;36.60;43.60
23499;DHT22;11926;48.120;11.562;2023-06-22T15:22:10;36.60;43.60
23499;DHT22;11926;48.120;11.562;2023-06-22T15:24:58;36.60;43.20
23499;DHT22;11926;48.120;11.562;2023-06-22T15:27:45;36.50;42.90
23499;DHT22;11926;48.120;11.562;2023-06-22T15:30:34;36.40;43.10
23499;DHT22;11926;48.120;11.562;2023-06-22T15:33:21;36.20;42.90
23499;DHT22;11926;48.120;11.562;2023-06-22T15:36:09;36.00;42.90
23499;DHT22;11926;48.120;11.562;2023-06-22T15:38:56;36.00;43.10
23499;DHT22;11926;48.120;11.562;2023-06-22T15:41:43;36.00;43.30
23499;DHT22;11926;48.120;11.562;2023-06-22T15:44:30;36.00;43.90
23499;DHT22;11926;48.120;11.562;2023-06-22T15:47:19;36.10;42.40
23499;DHT22;11926;48.120;11.562;2023-06-22T15:50:08;36.10;43.10
23499;DHT22;11926;48.120;11.562;2023-06-22T15:52:55;36.20;43.30
23499;DHT22;11926;48.120;11.562;2023-06-22T15:55:43;36.10;42.90
23499;DHT22;11926;48.120;11.562;2023-06-22T15:58:30;36.10;42.80
23499;DHT22;11926;48.120;11.562;2023-06-22T16:01:17;36.00;42.90
23499;DHT22;11926;48.120;11.562;2023-06-22T16:04:06;35.90;42.80
23499;DHT22;11926;48.120;11.562;2023-06-22T16:06:53;35.80;43.20
23499;DHT22;11926;48.120;11.562;2023-06-22T16:09:40;35.70;43.20
23499;DHT22;11926;48.120;11.562;2023-06-22T16:12:27;35.70;43.40
23499;DHT22;11926;48.120;11.562;2023-06-22T16:15:15;35.60;43.50
23499;DHT22;11926;48.120;11.562;2023-06-22T16:18:02;35.60;44.10
23499;DHT22;11926;48.120;11.562;2023-06-22T16:20:52;35.60;44.00
23499;DHT22;11926;48.120;11.562;2023-06-22T16:23:39;35.60;43.00
23499;DHT22;11926;48.120;11.562;2023-06-22T16:26:26;35.60;43.30
23499;DHT22;11926;48.120;11.562;2023-06-22T16:29:14;35.40;43.20
23499;DHT22;11926;48.120;11.562;2023-06-22T16:32:01;35.40;43.00
23499;DHT22;11926;48.120;11.562;2023-06-22T16:34:48;35.40;43.30
23499;DHT22;11926;48.120;11.562;2023-06-22T16:37:36;35.30;42.80
23499;DHT22;11926;48.120;11.562;2023-06-22T16:40:24;35.30;42.90
23499;DHT22;11926;48.120;11.562;2023-06-22T16:43:11;35.10;44.10
23499;DHT22;11926;48.120;11.562;2023-06-22T16:45:59;35.00;43.30
23499;DHT22;11926;48.120;11.562;2023-06-22T16:48:50;34.80;43.10
23499;DHT22;11926;48.120;11.562;2023-06-22T16:51:38;34.60;43.60
23499;DHT22;11926;48.120;11.562;2023-06-22T16:54:28;34.40;44.10
23499;DHT22;11926;48.120;11.562;2023-06-22T16:57:16;34.20;44.70
23499;DHT22;11926;48.120;11.562;2023-06-22T17:00:06;34.10;45.10
23499;DHT22;11926;48.120;11.562;2023-06-22T17:02:59;34.00;46.00
23499;DHT22;11926;48.120;11.562;2023-06-22T17:05:53;34.00;49.50
23499;DHT22;11926;48.120;11.562;2023-06-22T17:08:47;33.80;54.10
23499;DHT22;11926;48.120;11.562;2023-06-22T17:11:36;33.60;57.60
23499;DHT22;11926;48.120;11.562;2023-06-22T17:14:23;33.40;57.90
23499;DHT22;11926;48.120;11.562;2023-06-22T17:17:11;32.80;58.30
23499;DHT22;11926;48.120;11.562;2023-06-22T17:19:58;32.10;60.80
23499;DHT22;11926;48.120;11.562;2023-06-22T17:22:45;31.30;63.80